sensor_id;sensor_type;location;lat;lon;timestamp;P1;durP1;ratioP1;P2;durP2;ratioP2
32236;SDS011;18726;44.732;10.550;2023-04-24T12:31:32;5.00;;;4.50;;
32236;SDS011;18726;44.732;10.550;2023-04-24T12:34:36;5.22;;;4.72;;
32236;SDS011;18726;44.732;10.550;2023-04-24T12:37:41;7.03;;;4.38;;
32236;SDS011;18726;44.732;10.550;2023-04-24T12:40:46;4.90;;;4.50;;
32236;SDS011;18726;44.732;10.550;2023-04-24T12:43:50;6.30;;;4.72;;
32236;SDS011;18726;44.732;10.550;2023-04-24T12:46:54;9.68;;;5.00;;
32236;SDS011;18726;44.732;10.550;2023-04-24T12:49:59;5.72;;;4.90;;
32236;SDS011;18726;44.732;10.550;2023-04-24T12:53:03;6.78;;;5.32;;
32236;SDS011;18726;44.732;10.550;2023-04-24T12:56:06;6.25;;;5.15;;
32236;SDS011;18726;44.732;10.550;2023-04-24T12:59:10;5.18;;;4.68;;
32236;SDS011;18726;44.732;10.550;2023-04-24T13:02:14;6.00;;;5.47;;
32236;SDS011;18726;44.732;10.550;2023-04-24T13:05:20;6.13;;;5.03;;
32236;SDS011;18726;44.732;10.550;2023-04-24T13:08:24;8.68;;;7.10;;
32236;SDS011;18726;44.732;10.550;2023-04-24T13:11:28;5.40;;;4.88;;
32236;SDS011;18726;44.732;10.550;2023-04-24T13:14:31;6.65;;;5.93;;
32236;SDS011;18726;44.732;10.550;2023-04-24T13:17:35;7.90;;;6.72;;
32236;SDS011;18726;44.732;10.550;2023-04-24T13:20:39;9.05;;;6.95;;
32236;SDS011;18726;44.732;10.550;2023-04-24T13:23:44;5.70;;;5.20;;
32236;SDS011;18726;44.732;10.550;2023-04-24T13:26:48;5.93;;;5.40;;
32236;SDS011;18726;44.732;10.550;2023-04-24T13:29:51;7.32;;;5.53;;
32236;SDS011;18726;44.732;10.550;2023-04-24T13:32:55;6.18;;;5.05;;
32236;SDS011;18726;44.732;10.550;2023-04-24T13:35:59;6.10;;;4.90;;
32236;SDS011;18726;44.732;10.550;2023-04-24T13:39:03;5.43;;;4.85;;
32236;SDS011;18726;44.732;10.550;2023-04-24T13:42:08;5.57;;;5.05;;
32236;SDS011;18726;44.732;10.550;2023-04-24T13:45:12;4.72;;;4.30;;
32236;SDS011;18726;44.732;10.550;2023-04-24T13:48:17;7.15;;;4.85;;
32236;SDS011;18726;44.732;10.550;2023-04-24T13:51:21;8.40;;;4.68;;
32236;SDS011;18726;44.732;10.550;2023-04-24T13:54:24;6.35;;;5.75;;
32236;SDS011;18726;44.732;10.550;2023-04-24T13:57:28;5.22;;;4.72;;
32236;SDS011;18726;44.732;10.550;2023-04-24T14:00:34;8.20;;;4.72;;
32236;SDS011;18726;44.732;10.550;2023-04-24T14:03:38;6.05;;;5.55;;
32236;SDS011;18726;44.732;10.550;2023-04-24T14:06:41;5.72;;;5.22;;
32236;SDS011;18726;44.732;10.550;2023-04-24T14:09:47;6.32;;;5.65;;
32236;SDS011;18726;44.732;10.550;2023-04-24T14:12:51;4.82;;;4.43;;
32236;SDS011;18726;44.732;10.550;2023-04-24T14:15:54;7.30;;;6.60;;
32236;SDS011;18726;44.732;10.550;2023-04-24T14:18:58;7.78;;;5.90;;
32236;SDS011;18726;44.732;10.550;2023-04-24T14:22:02;7.57;;;6.47;;
32236;SDS011;18726;44.732;10.550;2023-04-24T14:25:06;7.78;;;5.88;;
32236;SDS011;18726;44.732;10.550;2023-04-24T14:28:10;8.13;;;7.43;;
32236;SDS011;18726;44.732;10.550;2023-04-24T14:31:14;9.68;;;5.80;;
32236;SDS011;18726;44.732;10.550;2023-04-24T14:34:18;5.07;;;3.75;;
32236;SDS011;18726;44.732;10.550;2023-04-24T14:37:22;3.50;;;3.00;;
32236;SDS011;18726;44.732;10.550;2023-04-24T14:40:26;4.18;;;2.80;;
32236;SDS011;18726;44.732;10.550;2023-04-24T14:43:30;2.53;;;1.90;;
32236;SDS011;18726;44.732;10.550;2023-04-24T14:46:34;4.57;;;2.03;;
32236;SDS011;18726;44.732;10.550;2023-04-24T14:49:38;1.48;;;1.38;;
32236;SDS011;18726;44.732;10.550;2023-04-24T14:52:41;2.25;;;1.58;;
32236;SDS011;18726;44.732;10.550;2023-04-24T14:55:45;1.63;;;1.52;;
32236;SDS011;18726;44.732;10.550;2023-04-24T14:58:49;3.05;;;1.50;;
32236;SDS011;18726;44.732;10.550;2023-04-24T15:01:53;1.80;;;1.70;;
32236;SDS011;18726;44.732;10.550;2023-04-24T15:05:00;4.70;;;1.92;;
32236;SDS011;18726;44.732;10.550;2023-04-24T15:08:04;2.60;;;1.95;;
32236;SDS011;18726;44.732;10.550;2023-04-24T15:11:08;2.85;;;1.75;;
32236;SDS011;18726;44.732;10.550;2023-04-24T15:14:13;1.92;;;1.60;;
32236;SDS011;18726;44.732;10.550;2023-04-24T15:17:17;3.33;;;1.70;;
32236;SDS011;18726;44.732;10.550;2023-04-24T15:20:21;5.57;;;1.92;;
32236;SDS011;18726;44.732;10.550;2023-04-24T15:23:24;2.58;;;1.58;;
32236;SDS011;18726;44.732;10.550;2023-04-24T15:26:28;3.00;;;1.95;;
32236;SDS011;18726;44.732;10.550;2023-04-24T15:29:32;2.38;;;1.83;;
32236;SDS011;18726;44.732;10.550;2023-04-24T15:32:36;2.15;;;1.55;;
32236;SDS011;18726;44.732;10.550;2023-04-24T15:35:41;3.28;;;1.75;;
32236;SDS011;18726;44.732;10.550;2023-04-24T15:38:48;2.05;;;1.63;;
32236;SDS011;18726;44.732;10.550;2023-04-24T15:41:52;4.68;;;1.83;;
32236;SDS011;18726;44.732;10.550;2023-04-24T15:44:56;1.77;;;1.65;;
32236;SDS011;18726;44.732;10.550;2023-04-24T15:48:00;2.17;;;1.60;;
32236;SDS011;18726;44.732;10.550;2023-04-24T15:51:03;1.38;;;1.27;;
32236;SDS011;18726;44.732;10.550;2023-04-24T15:54:07;3.55;;;1.77;;
32236;SDS011;18726;44.732;10.550;2023-04-24T15:57:10;4.93;;;2.17;;
32236;SDS011;18726;44.732;10.550;2023-04-24T16:00:15;4.60;;;1.85;;
32236;SDS011;18726;44.732;10.550;2023-04-24T16:03:20;7.70;;;1.75;;
32236;SDS011;18726;44.732;10.550;2023-04-24T16:06:24;5.82;;;1.80;;
32236;SDS011;18726;44.732;10.550;2023-04-24T16:09:28;2.00;;;1.80;;
32236;SDS011;18726;44.732;10.550;2023-04-24T16:12:32;2.20;;;2.00;;
32236;SDS011;18726;44.732;10.550;2023-04-24T16:15:36;5.72;;;2.17;;
32236;SDS011;18726;44.732;10.550;2023-04-24T16:18:42;9.52;;;2.63;;
32236;SDS011;18726;44.732;10.550;2023-04-24T16:21:45;2.10;;;1.90;;
32236;SDS011;18726;44.732;10.550;2023-04-24T16:24:49;4.10;;;1.95;;
32236;SDS011;18726;44.732;10.550;2023-04-24T16:27:52;4.18;;;2.05;;
32236;SDS011;18726;44.732;10.550;2023-04-24T16:30:56;6.68;;;1.50;;
32236;SDS011;18726;44.732;10.550;2023-04-24T16:34:00;2.92;;;2.38;;
32236;SDS011;18726;44.732;10.550;2023-04-24T16:37:03;2.67;;;1.60;;
32236;SDS011;18726;44.732;10.550;2023-04-24T16:40:08;3.92;;;2.15;;
32236;SDS011;18726;44.732;10.550;2023-04-24T16:43:13;2.85;;;2.15;;
32236;SDS011;18726;44.732;10.550;2023-04-24T16:46:16;4.47;;;2.45;;
32236;SDS011;18726;44.732;10.550;2023-04-24T16:49:19;2.88;;;2.00;;
32236;SDS011;18726;44.732;10.550;2023-04-24T16:52:23;3.03;;;2.00;;
32236;SDS011;18726;44.732;10.550;2023-04-24T16:55:27;3.05;;;2.28;;
32236;SDS011;18726;44.732;10.550;2023-04-24T16:58:31;4.03;;;2.25;;
32236;SDS011;18726;44.732;10.550;2023-04-24T17:01:34;4.30;;;2.08;;
32236;SDS011;18726;44.732;10.550;2023-04-24T17:04:38;5.05;;;2.13;;
32236;SDS011;18726;44.732;10.550;2023-04-24T17:11:21;7.00;;;3.03;;
32236;SDS011;18726;44.732;10.550;2023-04-24T17:14:25;6.03;;;2.70;;
32236;SDS011;18726;44.732;10.550;2023-04-24T17:17:29;3.28;;;2.67;;
32236;SDS011;18726;44.732;10.550;2023-04-24T17:20:32;3.35;;;2.60;;
32236;SDS011;18726;44.732;10.550;2023-04-24T17:23:36;6.80;;;3.53;;
32236;SDS011;18726;44.732;10.550;2023-04-24T17:26:40;9.60;;;4.15;;
32236;SDS011;18726;44.732;10.550;2023-04-24T17:29:43;7.50;;;3.78;;
32236;SDS011;18726;44.732;10.550;2023-04-24T17:32:47;5.90;;;3.47;;
32236;SDS011;18726;44.732;10.550;2023-04-24T17:35:50;8.07;;;3.50;;
32236;SDS011;18726;44.732;10.550;2023-04-24T17:38:54;5.85;;;3.05;;
32236;SDS011;18726;44.732;10.550;2023-04-24T17:41:58;5.75;;;3.45;;
32236;SDS011;18726;44.732;10.550;2023-04-24T17:45:02;4.57;;;3.33;;
32236;SDS011;18726;44.732;10.550;2023-04-24T17:48:06;5.47;;;3.22;;
32236;SDS011;18726;44.732;10.550;2023-04-24T17:51:09;8.25;;;3.13;;
32236;SDS011;18726;44.732;10.550;2023-04-24T17:54:13;4.20;;;3.33;;
32236;SDS011;18726;44.732;10.550;2023-04-24T17:57:16;8.60;;;5.65;;
32236;SDS011;18726;44.732;10.550;2023-04-24T18:00:20;8.57;;;4.03;;
32236;SDS011;18726;44.732;10.550;2023-04-24T18:03:24;7.60;;;6.85;;
32236;SDS011;18726;44.732;10.550;2023-04-24T18:06:28;47.38;;;35.42;;
32236;SDS011;18726;44.732;10.550;2023-04-24T18:09:32;25.35;;;14.27;;
32236;SDS011;18726;44.732;10.550;2023-04-24T18:12:35;81.13;;;65.07;;
32236;SDS011;18726;44.732;10.550;2023-04-24T18:15:39;38.42;;;26.15;;
32236;SDS011;18726;44.732;10.550;2023-04-24T18:18:45;58.35;;;39.53;;
32236;SDS011;18726;44.732;10.550;2023-04-24T18:21:49;37.75;;;27.45;;
32236;SDS011;18726;44.732;10.550;2023-04-24T18:24:53;39.25;;;28.55;;
32236;SDS011;18726;44.732;10.550;2023-04-24T18:27:56;13.98;;;11.68;;
32236;SDS011;18726;44.732;10.550;2023-04-24T18:31:00;9.75;;;7.55;;
32236;SDS011;18726;44.732;10.550;2023-04-24T18:34:04;4.75;;;4.13;;
32236;SDS011;18726;44.732;10.550;2023-04-24T18:37:08;12.57;;;5.80;;
32236;SDS011;18726;44.732;10.550;2023-04-24T18:40:12;5.82;;;4.10;;
32236;SDS011;18726;44.732;10.550;2023-04-24T18:43:17;6.55;;;4.50;;
32236;SDS011;18726;44.732;10.550;2023-04-24T18:46:21;10.60;;;4.68;;
32236;SDS011;18726;44.732;10.550;2023-04-24T18:49:24;7.88;;;4.57;;
32236;SDS011;18726;44.732;10.550;2023-04-24T18:52:28;5.18;;;4.43;;
32236;SDS011;18726;44.732;10.550;2023-04-24T18:55:31;6.97;;;4.00;;
32236;SDS011;18726;44.732;10.550;2023-04-24T18:58:35;5.82;;;4.40;;
32236;SDS011;18726;44.732;10.550;2023-04-24T19:01:39;6.80;;;3.80;;
32236;SDS011;18726;44.732;10.550;2023-04-24T19:04:44;5.43;;;4.93;;
32236;SDS011;18726;44.732;10.550;2023-04-24T19:07:47;7.65;;;4.90;;
32236;SDS011;18726;44.732;10.550;2023-04-24T19:10:51;6.10;;;4.20;;
32236;SDS011;18726;44.732;10.550;2023-04-24T19:13:54;17.67;;;4.78;;
32236;SDS011;18726;44.732;10.550;2023-04-24T19:16:59;6.78;;;4.22;;
32236;SDS011;18726;44.732;10.550;2023-04-24T19:20:03;4.65;;;3.88;;
32236;SDS011;18726;44.732;10.550;2023-04-24T19:23:07;5.03;;;3.78;;
32236;SDS011;18726;44.732;10.550;2023-04-24T19:26:10;5.03;;;4.45;;
32236;SDS011;18726;44.732;10.550;2023-04-24T19:29:16;12.23;;;4.65;;
32236;SDS011;18726;44.732;10.550;2023-04-24T19:32:19;8.52;;;4.53;;
32236;SDS011;18726;44.732;10.550;2023-04-24T19:35:22;5.00;;;3.95;;
32236;SDS011;18726;44.732;10.550;2023-04-24T19:38:26;5.80;;;3.80;;
32236;SDS011;18726;44.732;10.550;2023-04-24T19:41:30;8.82;;;3.45;;
32236;SDS011;18726;44.732;10.550;2023-04-24T19:44:33;4.55;;;3.75;;
32236;SDS011;18726;44.732;10.550;2023-04-24T19:47:36;4.72;;;3.60;;
32236;SDS011;18726;44.732;10.550;2023-04-24T19:50:41;5.80;;;4.38;;
32236;SDS011;18726;44.732;10.550;2023-04-24T19:53:45;5.57;;;5.07;;
32236;SDS011;18726;44.732;10.550;2023-04-24T19:56:49;5.13;;;4.57;;
32236;SDS011;18726;44.732;10.550;2023-04-24T19:59:53;4.90;;;4.43;;
32236;SDS011;18726;44.732;10.550;2023-04-24T20:02:56;10.95;;;4.75;;
32236;SDS011;18726;44.732;10.550;2023-04-24T20:06:00;13.02;;;4.22;;
32236;SDS011;18726;44.732;10.550;2023-04-24T20:09:03;4.35;;;3.90;;
32236;SDS011;18726;44.732;10.550;2023-04-24T20:12:08;4.40;;;3.72;;
32236;SDS011;18726;44.732;10.550;2023-04-24T20:15:11;4.05;;;3.65;;
32236;SDS011;18726;44.732;10.550;2023-04-24T20:18:16;5.32;;;3.38;;
32236;SDS011;18726;44.732;10.550;2023-04-24T20:21:19;6.95;;;3.75;;
32236;SDS011;18726;44.732;10.550;2023-04-24T20:24:23;3.63;;;2.97;;
32236;SDS011;18726;44.732;10.550;2023-04-24T20:27:26;3.63;;;2.83;;
32236;SDS011;18726;44.732;10.550;2023-04-24T20:30:31;5.35;;;3.83;;
32236;SDS011;18726;44.732;10.550;2023-04-24T20:33:35;5.18;;;2.90;;
32236;SDS011;18726;44.732;10.550;2023-04-24T20:36:43;3.10;;;2.80;;
32236;SDS011;18726;44.732;10.550;2023-04-24T20:39:46;3.90;;;3.00;;
32236;SDS011;18726;44.732;10.550;2023-04-24T20:42:51;3.20;;;2.90;;
32236;SDS011;18726;44.732;10.550;2023-04-24T20:45:55;4.13;;;3.10;;
32236;SDS011;18726;44.732;10.550;2023-04-24T20:49:02;3.65;;;3.20;;
32236;SDS011;18726;44.732;10.550;2023-04-24T20:52:07;3.88;;;3.47;;
32236;SDS011;18726;44.732;10.550;2023-04-24T20:55:11;3.60;;;3.30;;
32236;SDS011;18726;44.732;10.550;2023-04-24T20:58:15;3.38;;;2.92;;
32236;SDS011;18726;44.732;10.550;2023-04-24T21:01:23;3.33;;;3.03;;
32236;SDS011;18726;44.732;10.550;2023-04-24T21:04:26;8.15;;;3.90;;
32236;SDS011;18726;44.732;10.550;2023-04-24T21:07:29;5.25;;;3.60;;
32236;SDS011;18726;44.732;10.550;2023-04-24T21:10:33;4.82;;;3.30;;
32236;SDS011;18726;44.732;10.550;2023-04-24T21:13:37;3.58;;;3.28;;
32236;SDS011;18726;44.732;10.550;2023-04-24T21:16:40;3.92;;;3.63;;
32236;SDS011;18726;44.732;10.550;2023-04-24T21:19:44;4.65;;;4.10;;
32236;SDS011;18726;44.732;10.550;2023-04-24T21:22:48;5.75;;;4.45;;
32236;SDS011;18726;44.732;10.550;2023-04-24T21:25:52;5.63;;;4.50;;
32236;SDS011;18726;44.732;10.550;2023-04-24T21:28:55;6.72;;;4.60;;
32236;SDS011;18726;44.732;10.550;2023-04-24T21:31:59;5.68;;;4.75;;
32236;SDS011;18726;44.732;10.550;2023-04-24T21:35:03;12.55;;;5.25;;
32236;SDS011;18726;44.732;10.550;2023-04-24T21:38:08;11.05;;;4.90;;
32236;SDS011;18726;44.732;10.550;2023-04-24T21:41:11;5.22;;;4.72;;
32236;SDS011;18726;44.732;10.550;2023-04-24T21:44:16;6.32;;;5.50;;
32236;SDS011;18726;44.732;10.550;2023-04-24T21:47:19;6.03;;;5.43;;
32236;SDS011;18726;44.732;10.550;2023-04-24T21:50:23;7.00;;;5.10;;
32236;SDS011;18726;44.732;10.550;2023-04-24T21:53:27;5.20;;;4.80;;
32236;SDS011;18726;44.732;10.550;2023-04-24T21:56:32;6.05;;;4.97;;
32236;SDS011;18726;44.732;10.550;2023-04-24T21:59:36;5.50;;;5.00;;
32236;SDS011;18726;44.732;10.550;2023-04-24T22:02:39;5.80;;;5.30;;
32236;SDS011;18726;44.732;10.550;2023-04-24T22:05:44;7.75;;;5.55;;
32236;SDS011;18726;44.732;10.550;2023-04-24T22:08:48;10.10;;;5.35;;
32236;SDS011;18726;44.732;10.550;2023-04-24T22:11:53;10.15;;;5.80;;
32236;SDS011;18726;44.732;10.550;2023-04-24T22:14:57;7.45;;;6.65;;
32236;SDS011;18726;44.732;10.550;2023-04-24T22:18:01;12.57;;;6.90;;
32236;SDS011;18726;44.732;10.550;2023-04-24T22:21:06;8.63;;;6.13;;
32236;SDS011;18726;44.732;10.550;2023-04-24T22:24:10;11.45;;;6.18;;
32236;SDS011;18726;44.732;10.550;2023-04-24T22:27:13;8.40;;;5.90;;
32236;SDS011;18726;44.732;10.550;2023-04-24T22:30:17;12.18;;;6.40;;
32236;SDS011;18726;44.732;10.550;2023-04-24T22:33:21;9.88;;;5.30;;
32236;SDS011;18726;44.732;10.550;2023-04-24T22:36:24;5.68;;;4.97;;
32236;SDS011;18726;44.732;10.550;2023-04-24T22:39:29;11.75;;;4.95;;
32236;SDS011;18726;44.732;10.550;2023-04-24T22:42:33;6.10;;;5.47;;
32236;SDS011;18726;44.732;10.550;2023-04-24T22:45:37;9.02;;;5.07;;
32236;SDS011;18726;44.732;10.550;2023-04-24T22:48:40;9.88;;;5.63;;
32236;SDS011;18726;44.732;10.550;2023-04-24T22:51:43;9.88;;;5.43;;
32236;SDS011;18726;44.732;10.550;2023-04-24T22:54:47;10.45;;;6.15;;
32236;SDS011;18726;44.732;10.550;2023-04-24T22:57:51;8.80;;;6.38;;
32236;SDS011;18726;44.732;10.550;2023-04-24T23:00:54;7.32;;;5.05;;
32236;SDS011;18726;44.732;10.550;2023-04-24T23:03:58;8.93;;;5.68;;
32236;SDS011;18726;44.732;10.550;2023-04-24T23:07:01;7.60;;;4.95;;
32236;SDS011;18726;44.732;10.550;2023-04-24T23:10:05;4.85;;;4.35;;
32236;SDS011;18726;44.732;10.550;2023-04-24T23:13:09;6.75;;;5.38;;
32236;SDS011;18726;44.732;10.550;2023-04-24T23:16:12;5.70;;;5.03;;
32236;SDS011;18726;44.732;10.550;2023-04-24T23:19:16;5.95;;;5.35;;
32236;SDS011;18726;44.732;10.550;2023-04-24T23:22:19;5.25;;;4.78;;
32236;SDS011;18726;44.732;10.550;2023-04-24T23:25:23;5.80;;;5.05;;
32236;SDS011;18726;44.732;10.550;2023-04-24T23:28:27;10.38;;;4.68;;
32236;SDS011;18726;44.732;10.550;2023-04-24T23:31:31;7.88;;;4.85;;
32236;SDS011;18726;44.732;10.550;2023-04-24T23:34:34;6.45;;;5.60;;
32236;SDS011;18726;44.732;10.550;2023-04-24T23:37:41;9.13;;;5.65;;
32236;SDS011;18726;44.732;10.550;2023-04-24T23:40:45;4.22;;;3.83;;
32236;SDS011;18726;44.732;10.550;2023-04-24T23:43:49;4.93;;;4.43;;
32236;SDS011;18726;44.732;10.550;2023-04-24T23:46:53;4.80;;;4.40;;
32236;SDS011;18726;44.732;10.550;2023-04-24T23:49:56;6.22;;;5.28;;
32236;SDS011;18726;44.732;10.550;2023-04-24T23:52:59;6.15;;;5.32;;
32236;SDS011;18726;44.732;10.550;2023-04-24T23:56:03;7.13;;;4.20;;
32236;SDS011;18726;44.732;10.550;2023-04-24T23:59:07;5.53;;;4.43;;
